Time;durP1;ratioP1;P1;durP2;ratioP2;P2;SDS_P1;SDS_P2;PMS_P1;PMS_P2;Temp;Humidity;BMP_temperature;BMP_pressure;BME280_temperature;BME280_humidity;BME280_pressure;Samples;Min_cycle;Max_cycle;Signal;HPM_P1;HPM_P2
2023/09/09 00:01:59;;;;;;;0.00;0.00;;;18.10;99.90;;;;;;5073933;28;20434;-77
2023/09/09 00:04:24;;;;;;;0.00;0.00;;;18.10;99.90;;;;;;5071206;28;20551;-76
2023/09/09 00:06:50;;;;;;;0.00;0.00;;;18.20;99.90;;;;;;5086005;28;20181;-76
2023/09/09 00:09:15;;;;;;;0.00;0.00;;;18.60;99.90;;;;;;5089705;28;20268;-76
2023/09/09 00:11:41;;;;;;;0.00;0.00;;;18.60;99.90;;;;;;5088843;28;20256;-76
2023/09/09 00:14:06;;;;;;;0.00;0.00;;;18.60;99.90;;;;;;5088751;28;20204;-76
2023/09/09 00:16:34;;;;;;;0.00;0.00;;;18.70;99.90;;;;;;5084757;28;21204;-75
2023/09/09 00:19:00;;;;;;;0.00;0.00;;;19.00;99.90;;;;;;5069538;28;20217;-76
2023/09/09 00:21:25;;;;;;;0.00;0.00;;;18.90;99.90;;;;;;5076394;28;20428;-77
2023/09/09 00:23:51;;;;;;;0.00;0.00;;;18.70;99.90;;;;;;5089358;28;20189;-76
2023/09/09 00:26:16;;;;;;;0.00;0.00;;;18.70;99.90;;;;;;5091927;28;20169;-75
2023/09/09 00:28:42;;;;;;;0.00;0.00;;;18.70;99.90;;;;;;5101299;28;20197;-76
2023/09/09 00:31:07;;;;;;;0.00;0.00;;;18.50;99.90;;;;;;5090847;28;20181;-76
2023/09/09 00:33:33;;;;;;;0.00;0.00;;;18.50;99.90;;;;;;5104252;28;20628;-76
2023/09/09 00:36:01;;;;;;;0.00;0.00;;;18.70;99.90;;;;;;5090826;28;20185;-76
2023/09/09 00:38:27;;;;;;;0.00;0.00;;;18.70;99.90;;;;;;5105799;28;22122;-76
2023/09/09 00:41:13;;;;;;;0.00;0.00;;;18.70;99.90;;;;;;5075784;28;20451;-76
2023/09/09 00:43:39;;;;;;;0.00;0.00;;;18.80;99.90;;;;;;5089457;28;20725;-76
2023/09/09 00:46:06;;;;;;;0.00;0.00;;;18.80;99.90;;;;;;5088696;28;20498;-76
2023/09/09 00:48:31;;;;;;;0.00;0.00;;;18.90;99.90;;;;;;5094036;28;20260;-76
2023/09/09 00:50:57;;;;;;;0.00;0.00;;;19.00;99.90;;;;;;5087918;28;20479;-76
2023/09/09 00:53:23;;;;;;;0.00;0.00;;;19.10;99.90;;;;;;5088725;28;20199;-76
2023/09/09 00:55:48;;;;;;;0.00;0.00;;;18.70;99.90;;;;;;5091011;28;20637;-76
2023/09/09 00:58:14;;;;;;;0.00;0.00;;;18.60;99.90;;;;;;5073785;28;20560;-76
2023/09/09 01:00:40;;;;;;;0.00;0.00;;;18.70;99.90;;;;;;5090337;28;20656;-76
2023/09/09 01:03:05;;;;;;;0.00;0.00;;;18.50;99.90;;;;;;5090781;28;20893;-76
2023/09/09 01:05:32;;;;;;;0.00;0.00;;;18.70;99.90;;;;;;5091089;28;20197;-76
2023/09/09 01:07:58;;;;;;;0.00;0.00;;;18.80;99.90;;;;;;5088494;28;20185;-76
2023/09/09 01:10:23;;;;;;;0.00;0.00;;;18.40;99.90;;;;;;5089280;28;20565;-76
2023/09/09 01:12:50;;;;;;;0.00;0.00;;;18.80;99.90;;;;;;5091621;28;20180;-77
2023/09/09 01:15:16;;;;;;;0.00;0.00;;;18.90;99.90;;;;;;5090974;28;20185;-76
2023/09/09 01:17:41;;;;;;;0.00;0.00;;;18.90;99.90;;;;;;5093508;28;20422;-76
2023/09/09 01:20:13;;;;;;;0.00;0.00;;;18.80;99.90;;;;;;5085604;28;20898;-76
2023/09/09 01:22:44;;;;;;;0.00;0.00;;;18.80;99.90;;;;;;5082106;28;20283;-76
2023/09/09 01:25:13;;;;;;;0.00;0.00;;;18.60;99.90;;;;;;5091250;28;20447;-76
2023/09/09 01:27:39;;;;;;;0.00;0.00;;;18.40;99.90;;;;;;5091848;28;20522;-76
2023/09/09 01:30:06;;;;;;;0.00;0.00;;;18.50;99.90;;;;;;5088683;28;20553;-76
2023/09/09 01:32:31;;;;;;;0.00;0.00;;;18.60;99.90;;;;;;5091357;28;20782;-76
2023/09/09 01:34:57;;;;;;;0.00;0.00;;;18.60;99.90;;;;;;5092893;28;20430;-76
2023/09/09 01:37:22;;;;;;;0.00;0.00;;;18.50;99.90;;;;;;5090377;28;20188;-76
2023/09/09 01:39:49;;;;;;;0.00;0.00;;;18.50;99.90;;;;;;5092845;28;20213;-76
2023/09/09 01:42:15;;;;;;;0.00;0.00;;;18.10;99.90;;;;;;5091067;28;20671;-76
2023/09/09 01:44:45;;;;;;;0.00;0.00;;;18.00;99.90;;;;;;5089449;28;20480;-76
2023/09/09 01:47:10;;;;;;;0.00;0.00;;;18.10;99.90;;;;;;5089176;28;20242;-76
2023/09/09 01:49:36;;;;;;;0.00;0.00;;;17.90;99.90;;;;;;5092778;28;20459;-76
2023/09/09 01:52:02;;;;;;;0.00;0.00;;;18.10;99.90;;;;;;5091947;28;20250;-76
2023/09/09 01:54:28;;;;;;;0.00;0.00;;;17.90;99.90;;;;;;5093882;28;20539;-76
2023/09/09 01:56:53;;;;;;;0.00;0.00;;;18.00;99.90;;;;;;5098347;28;20458;-76
2023/09/09 01:59:19;;;;;;;0.00;0.00;;;17.90;99.90;;;;;;5098301;28;20667;-76
2023/09/09 02:01:44;;;;;;;0.00;0.00;;;17.70;99.90;;;;;;5092893;28;20189;-76
2023/09/09 02:04:10;;;;;;;0.00;0.00;;;17.70;99.90;;;;;;5089359;28;20231;-76
2023/09/09 02:06:35;;;;;;;0.00;0.00;;;17.80;99.90;;;;;;5091398;28;20207;-77
2023/09/09 02:09:01;;;;;;;0.00;0.00;;;17.70;99.90;;;;;;5091755;28;20248;-76
2023/09/09 02:11:26;;;;;;;0.00;0.00;;;17.80;99.90;;;;;;5090863;28;20272;-76
2023/09/09 02:13:52;;;;;;;0.00;0.00;;;17.60;99.90;;;;;;5092477;28;20213;-76
2023/09/09 02:16:18;;;;;;;0.00;0.00;;;17.70;99.90;;;;;;5089990;28;20173;-76
2023/09/09 02:18:44;;;;;;;0.00;0.00;;;17.60;99.90;;;;;;5074076;28;20221;-76
2023/09/09 02:21:09;;;;;;;0.00;0.00;;;17.50;99.90;;;;;;5089840;28;20501;-76
2023/09/09 02:23:39;;;;;;;0.00;0.00;;;17.50;99.90;;;;;;5088286;28;20214;-76
2023/09/09 02:26:04;;;;;;;0.00;0.00;;;17.60;99.90;;;;;;5092195;28;20231;-76
2023/09/09 02:28:30;;;;;;;0.00;0.00;;;17.70;99.90;;;;;;5090510;28;20930;-76
2023/09/09 02:30:56;;;;;;;0.00;0.00;;;17.70;99.90;;;;;;5090261;28;20809;-76
2023/09/09 02:33:22;;;;;;;0.00;0.00;;;17.50;99.90;;;;;;5091989;28;20449;-76
2023/09/09 02:35:47;;;;;;;0.00;0.00;;;17.30;99.90;;;;;;5088964;28;20189;-76
2023/09/09 02:38:13;;;;;;;0.00;0.00;;;17.50;99.90;;;;;;5090458;28;20189;-76
2023/09/09 02:40:38;;;;;;;0.00;0.00;;;17.60;99.90;;;;;;5090805;28;20185;-76
2023/09/09 02:43:04;;;;;;;0.00;0.00;;;17.50;99.90;;;;;;5106620;28;20184;-76
2023/09/09 02:45:29;;;;;;;0.00;0.00;;;17.40;99.90;;;;;;5089494;28;20199;-76
2023/09/09 02:47:55;;;;;;;0.00;0.00;;;17.40;99.90;;;;;;5090469;28;20190;-76
2023/09/09 02:50:20;;;;;;;0.00;0.00;;;17.40;99.90;;;;;;5089505;28;20211;-76
2023/09/09 02:52:49;;;;;;;0.00;0.00;;;17.30;99.90;;;;;;5087468;28;20272;-76
2023/09/09 02:55:15;;;;;;;0.00;0.00;;;17.30;99.90;;;;;;5091090;28;20184;-76
2023/09/09 02:57:40;;;;;;;0.00;0.00;;;17.30;99.90;;;;;;5107651;28;20474;-76
2023/09/09 03:00:09;;;;;;;0.00;0.00;;;17.30;99.90;;;;;;5091209;28;20692;-76
2023/09/09 03:02:35;;;;;;;0.00;0.00;;;17.30;99.90;;;;;;5091822;28;20189;-76
2023/09/09 03:05:00;;;;;;;0.00;0.00;;;17.20;99.90;;;;;;5089872;28;20532;-76
2023/09/09 03:07:26;;;;;;;0.00;0.00;;;17.20;99.90;;;;;;5083175;28;20611;-76
2023/09/09 03:09:51;;;;;;;0.00;0.00;;;17.00;99.90;;;;;;5090755;28;20208;-76
2023/09/09 03:12:20;;;;;;;0.00;0.00;;;17.00;99.90;;;;;;5088459;28;20212;-76
2023/09/09 03:14:47;;;;;;;0.00;0.00;;;16.90;99.90;;;;;;5073162;28;20193;-76
2023/09/09 03:17:13;;;;;;;0.00;0.00;;;17.00;99.90;;;;;;5087939;28;20538;-76
2023/09/09 03:19:39;;;;;;;0.00;0.00;;;17.10;99.90;;;;;;5090008;28;20493;-76
2023/09/09 03:22:04;;;;;;;0.00;0.00;;;17.10;99.90;;;;;;5090837;28;20443;-76
2023/09/09 03:24:30;;;;;;;0.00;0.00;;;17.00;99.90;;;;;;5089640;28;20648;-76
2023/09/09 03:26:55;;;;;;;0.00;0.00;;;17.00;99.90;;;;;;5087152;28;21295;-76
2023/09/09 03:29:21;;;;;;;0.00;0.00;;;16.90;99.90;;;;;;5078116;28;20181;-76
2023/09/09 03:31:46;;;;;;;0.00;0.00;;;16.90;99.90;;;;;;5088506;28;20192;-76
2023/09/09 03:34:12;;;;;;;0.00;0.00;;;16.90;99.90;;;;;;5091343;28;20235;-76
2023/09/09 03:36:38;;;;;;;0.00;0.00;;;16.90;99.90;;;;;;5089794;28;20203;-76
2023/09/09 03:39:03;;;;;;;0.00;0.00;;;16.80;99.90;;;;;;5090688;28;20212;-76
2023/09/09 03:41:29;;;;;;;0.00;0.00;;;16.80;99.90;;;;;;5090485;28;20573;-76
2023/09/09 03:43:55;;;;;;;0.00;0.00;;;16.80;99.90;;;;;;5085586;28;20189;-76
2023/09/09 03:46:20;;;;;;;0.00;0.00;;;16.90;99.90;;;;;;5090081;28;20554;-76
2023/09/09 03:48:46;;;;;;;0.00;0.00;;;17.00;99.90;;;;;;5091147;28;20177;-76
2023/09/09 03:51:12;;;;;;;0.00;0.00;;;17.00;99.90;;;;;;5088643;28;20191;-76
2023/09/09 03:53:37;;;;;;;0.00;0.00;;;16.90;99.90;;;;;;5088276;28;20267;-76
2023/09/09 03:56:04;;;;;;;0.00;0.00;;;17.10;99.90;;;;;;5089787;28;21154;-76
2023/09/09 03:58:29;;;;;;;0.00;0.00;;;17.00;99.90;;;;;;5090284;28;20594;-76
2023/09/09 04:01:15;;;;;;;0.00;0.00;;;17.00;99.90;;;;;;5089541;28;20450;-76
2023/09/09 04:03:41;;;;;;;0.00;0.00;;;17.00;99.90;;;;;;5089738;28;20555;-76
2023/09/09 04:06:08;;;;;;;0.00;0.00;;;17.00;99.90;;;;;;5091608;28;20419;-76
2023/09/09 04:08:35;;;;;;;0.00;0.00;;;17.10;99.90;;;;;;5091450;28;20302;-76
2023/09/09 04:11:01;;;;;;;0.00;0.00;;;17.00;99.90;;;;;;5089029;28;20443;-76
2023/09/09 04:13:27;;;;;;;0.00;0.00;;;16.90;99.90;;;;;;5089399;28;20442;-76
2023/09/09 04:15:54;;;;;;;0.00;0.00;;;16.80;99.90;;;;;;5087316;28;20438;-76
2023/09/09 04:18:19;;;;;;;0.00;0.00;;;16.60;99.90;;;;;;5095331;28;20189;-76
2023/09/09 04:20:45;;;;;;;0.00;0.00;;;16.70;99.90;;;;;;5092570;28;20450;-76
2023/09/09 04:23:11;;;;;;;0.00;0.00;;;16.50;99.90;;;;;;5087169;28;20625;-76
2023/09/09 04:25:36;;;;;;;0.00;0.00;;;16.60;99.90;;;;;;5090185;28;20450;-76
2023/09/09 04:28:02;;;;;;;0.00;0.00;;;16.70;99.90;;;;;;5089465;28;20187;-76
2023/09/09 04:30:27;;;;;;;0.00;0.00;;;16.70;99.90;;;;;;5088254;28;20185;-76
2023/09/09 04:32:54;;;;;;;0.00;0.00;;;16.80;99.90;;;;;;5090083;28;20181;-76
2023/09/09 04:35:19;;;;;;;0.00;0.00;;;16.60;99.90;;;;;;5087735;28;20626;-76
2023/09/09 04:37:45;;;;;;;0.00;0.00;;;16.80;99.90;;;;;;5089260;28;20541;-76
2023/09/09 04:40:11;;;;;;;0.00;0.00;;;16.80;99.90;;;;;;5091320;28;20219;-75
2023/09/09 04:42:36;;;;;;;0.00;0.00;;;16.80;99.90;;;;;;5069182;28;20181;-76
2023/09/09 04:45:04;;;;;;;0.00;0.00;;;16.80;99.90;;;;;;5086017;28;20251;-76
2023/09/09 04:47:30;;;;;;;0.00;0.00;;;16.80;99.90;;;;;;5083055;28;20189;-76
2023/09/09 04:49:57;;;;;;;0.00;0.00;;;16.80;99.90;;;;;;5083985;28;20439;-76
2023/09/09 04:52:23;;;;;;;0.00;0.00;;;16.80;99.90;;;;;;5088724;28;20211;-76
2023/09/09 04:54:49;;;;;;;0.00;0.00;;;16.80;99.90;;;;;;5086178;28;20447;-76
2023/09/09 04:57:15;;;;;;;0.00;0.00;;;16.80;99.90;;;;;;5090329;28;20282;-76
2023/09/09 04:59:41;;;;;;;0.00;0.00;;;16.80;99.90;;;;;;5089181;28;20839;-76
2023/09/09 05:02:07;;;;;;;0.00;0.00;;;16.90;99.90;;;;;;5081871;28;20428;-76
2023/09/09 05:04:32;;;;;;;0.00;0.00;;;17.00;99.90;;;;;;5081848;28;21261;-76
2023/09/09 05:06:58;;;;;;;0.00;0.00;;;17.00;99.90;;;;;;5084668;28;20195;-76
2023/09/09 05:09:23;;;;;;;0.00;0.00;;;16.90;99.90;;;;;;5088751;28;20196;-76
2023/09/09 05:11:49;;;;;;;0.00;0.00;;;16.90;99.90;;;;;;5083877;28;20181;-76
2023/09/09 05:14:14;;;;;;;0.00;0.00;;;16.90;99.90;;;;;;5086230;28;20189;-76
2023/09/09 05:16:40;;;;;;;0.00;0.00;;;16.90;99.90;;;;;;5094950;28;20189;-75
2023/09/09 05:19:05;;;;;;;0.00;0.00;;;16.80;99.90;;;;;;5074181;28;20255;-76
2023/09/09 05:21:31;;;;;;;0.00;0.00;;;17.00;99.90;;;;;;5092839;28;20189;-75
2023/09/09 05:23:56;;;;;;;0.00;0.00;;;17.00;99.90;;;;;;5091953;28;20224;-76
2023/09/09 05:26:22;;;;;;;0.00;0.00;;;17.00;99.90;;;;;;5088236;28;20185;-76
2023/09/09 05:28:48;;;;;;;0.00;0.00;;;17.00;99.90;;;;;;5083744;28;20572;-75
2023/09/09 05:31:15;;;;;;;0.00;0.00;;;17.00;99.90;;;;;;5069562;28;20351;-74
2023/09/09 05:33:41;;;;;;;0.00;0.00;;;17.20;99.90;;;;;;5070978;28;20609;-75
2023/09/09 05:36:06;;;;;;;0.00;0.00;;;17.20;99.90;;;;;;5085179;28;20447;-75
2023/09/09 05:38:32;;;;;;;0.00;0.00;;;17.10;99.90;;;;;;5072789;28;20217;-74
2023/09/09 05:40:58;;;;;;;0.00;0.00;;;17.30;99.90;;;;;;5104746;28;20195;-76
2023/09/09 05:43:23;;;;;;;0.00;0.00;;;17.30;99.90;;;;;;5071929;28;20192;-76
2023/09/09 05:45:49;;;;;;;0.00;0.00;;;17.40;99.90;;;;;;5091086;28;22131;-76
2023/09/09 05:48:14;;;;;;;0.00;0.00;;;17.40;99.90;;;;;;5087511;28;20188;-76
2023/09/09 05:50:40;;;;;;;0.00;0.00;;;17.50;99.90;;;;;;5101036;28;20189;-76
2023/09/09 05:53:05;;;;;;;0.00;0.00;;;17.50;99.90;;;;;;5077626;28;20797;-76
2023/09/09 05:55:31;;;;;;;0.00;0.00;;;17.50;99.90;;;;;;5098863;28;20188;-76
2023/09/09 05:57:56;;;;;;;0.00;0.00;;;17.60;99.90;;;;;;5090122;28;20217;-76
2023/09/09 06:00:22;;;;;;;0.00;0.00;;;17.60;99.90;;;;;;5088371;28;20256;-76
2023/09/09 06:02:48;;;;;;;0.00;0.00;;;17.70;99.90;;;;;;5088365;28;20189;-75
2023/09/09 06:05:15;;;;;;;0.00;0.00;;;17.70;99.90;;;;;;5086207;28;20184;-76
2023/09/09 06:07:41;;;;;;;0.00;0.00;;;17.80;99.90;;;;;;5075697;28;20596;-76
2023/09/09 06:10:07;;;;;;;0.00;0.00;;;17.80;99.90;;;;;;5086206;28;20442;-76
2023/09/09 06:12:33;;;;;;;0.00;0.00;;;17.90;99.90;;;;;;5091658;28;20435;-76
2023/09/09 06:14:59;;;;;;;0.00;0.00;;;17.90;99.90;;;;;;5072668;28;21013;-76
2023/09/09 06:17:24;;;;;;;0.00;0.00;;;18.00;99.90;;;;;;5092403;28;20188;-76
2023/09/09 06:19:50;;;;;;;0.00;0.00;;;18.10;99.90;;;;;;5088573;28;20221;-76
2023/09/09 06:22:15;;;;;;;0.00;0.00;;;18.30;99.90;;;;;;5088612;28;20189;-76
2023/09/09 06:24:41;;;;;;;0.00;0.00;;;18.60;99.90;;;;;;5090319;28;20656;-76
2023/09/09 06:27:06;;;;;;;0.00;0.00;;;18.80;99.90;;;;;;5087274;28;20246;-75
2023/09/09 06:29:32;;;;;;;0.00;0.00;;;19.00;99.90;;;;;;5091811;28;20262;-76
2023/09/09 06:31:58;;;;;;;0.00;0.00;;;18.90;99.90;;;;;;5095913;28;20588;-77
2023/09/09 06:34:23;;;;;;;0.00;0.00;;;18.90;99.90;;;;;;5084564;28;20204;-76
2023/09/09 06:36:50;;;;;;;0.00;0.00;;;18.90;99.90;;;;;;5091272;28;20195;-77
2023/09/09 06:39:16;;;;;;;0.00;0.00;;;18.90;99.90;;;;;;5088376;28;20277;-76
2023/09/09 06:41:41;;;;;;;0.00;0.00;;;19.30;99.90;;;;;;5064930;28;20444;-76
2023/09/09 06:44:07;;;;;;;0.00;0.00;;;19.20;99.90;;;;;;5087191;28;20543;-77
2023/09/09 06:46:32;;;;;;;0.00;0.00;;;19.10;99.90;;;;;;5068241;28;20204;-77
2023/09/09 06:48:58;;;;;;;0.00;0.00;;;19.00;99.90;;;;;;5079737;28;20633;-77
2023/09/09 06:51:25;;;;;;;0.00;0.00;;;19.00;99.90;;;;;;5064245;28;20199;-77
2023/09/09 06:53:50;;;;;;;0.00;0.00;;;19.00;99.90;;;;;;5085230;28;20196;-76
2023/09/09 06:56:16;;;;;;;0.00;0.00;;;19.10;99.90;;;;;;5078748;28;20550;-77
2023/09/09 06:58:41;;;;;;;0.00;0.00;;;19.20;99.90;;;;;;5074780;28;20695;-77
2023/09/09 07:01:07;;;;;;;0.00;0.00;;;19.20;99.90;;;;;;5075258;28;20196;-77
2023/09/09 07:03:32;;;;;;;0.00;0.00;;;19.30;99.90;;;;;;5091479;28;20338;-77
2023/09/09 07:06:00;;;;;;;0.00;0.00;;;19.40;99.90;;;;;;5081823;28;20297;-76
2023/09/09 07:08:25;;;;;;;0.00;0.00;;;19.40;99.90;;;;;;5088133;28;20548;-77
2023/09/09 07:10:52;;;;;;;0.00;0.00;;;19.50;99.90;;;;;;5099682;28;20445;-78
2023/09/09 07:13:19;;;;;;;0.00;0.00;;;19.70;99.90;;;;;;5091857;28;20189;-77
2023/09/09 07:15:45;;;;;;;0.00;0.00;;;19.90;99.90;;;;;;5071526;28;20834;-77
2023/09/09 07:18:10;;;;;;;0.00;0.00;;;20.00;99.90;;;;;;5090175;28;20453;-77
2023/09/09 07:20:36;;;;;;;0.00;0.00;;;20.10;99.90;;;;;;5100663;28;20223;-77
2023/09/09 07:23:01;;;;;;;0.00;0.00;;;20.40;99.90;;;;;;5102751;28;20554;-76
2023/09/09 07:25:27;;;;;;;0.00;0.00;;;20.40;99.90;;;;;;5107962;28;20193;-76
2023/09/09 07:27:53;;;;;;;0.00;0.00;;;20.50;99.90;;;;;;5092163;28;20628;-76
2023/09/09 07:30:18;;;;;;;0.00;0.00;;;20.60;99.90;;;;;;5097645;28;20205;-77
2023/09/09 07:32:44;;;;;;;0.00;0.00;;;20.70;99.90;;;;;;5088642;28;20197;-77
2023/09/09 07:35:10;;;;;;;0.00;0.00;;;20.80;99.90;;;;;;5089939;28;20224;-77
2023/09/09 07:37:35;;;;;;;0.00;0.00;;;20.90;99.90;;;;;;5091291;28;20260;-77
2023/09/09 07:40:01;;;;;;;0.00;0.00;;;20.90;99.90;;;;;;5089414;28;20217;-77
2023/09/09 07:42:26;;;;;;;0.00;0.00;;;21.10;99.90;;;;;;5108401;28;20234;-77
2023/09/09 07:44:53;;;;;;;0.00;0.00;;;21.30;99.90;;;;;;5103840;28;20188;-77
2023/09/09 07:47:20;;;;;;;0.00;0.00;;;21.40;99.90;;;;;;5109697;28;20168;-76
2023/09/09 07:49:46;;;;;;;0.00;0.00;;;21.50;99.90;;;;;;5103052;28;20845;-78
2023/09/09 07:52:12;;;;;;;0.00;0.00;;;21.60;99.90;;;;;;5081551;28;20811;-76
2023/09/09 07:54:37;;;;;;;0.00;0.00;;;21.80;99.90;;;;;;5084722;28;20439;-77
2023/09/09 07:57:03;;;;;;;0.00;0.00;;;21.80;99.90;;;;;;5096522;28;20224;-78
2023/09/09 07:59:29;;;;;;;0.00;0.00;;;22.00;99.90;;;;;;5080445;28;20238;-77
2023/09/09 08:01:56;;;;;;;0.00;0.00;;;22.20;99.90;;;;;;5083062;28;20877;-77
2023/09/09 08:04:21;;;;;;;0.00;0.00;;;22.30;99.90;;;;;;5090256;28;20187;-76
2023/09/09 08:06:47;;;;;;;0.00;0.00;;;22.30;99.90;;;;;;5090510;28;20415;-78
2023/09/09 08:09:13;;;;;;;0.00;0.00;;;22.50;99.90;;;;;;5087987;28;20184;-77
2023/09/09 08:11:38;;;;;;;0.00;0.00;;;22.70;99.90;;;;;;5088784;28;20295;-77
2023/09/09 08:14:04;;;;;;;0.00;0.00;;;22.80;99.90;;;;;;5109298;28;21009;-77
2023/09/09 08:16:30;;;;;;;0.00;0.00;;;22.90;99.90;;;;;;5072528;28;20189;-77
2023/09/09 08:18:56;;;;;;;0.00;0.00;;;23.10;99.90;;;;;;5078528;28;20216;-77
2023/09/09 08:21:22;;;;;;;0.00;0.00;;;23.00;99.90;;;;;;5085903;28;20487;-77
2023/09/09 08:23:47;;;;;;;0.00;0.00;;;23.10;99.90;;;;;;5089403;28;20473;-77
2023/09/09 08:26:13;;;;;;;0.00;0.00;;;23.30;99.90;;;;;;5088114;28;20184;-78
2023/09/09 08:28:40;;;;;;;0.00;0.00;;;23.30;99.90;;;;;;5092814;28;20188;-78
2023/09/09 08:31:05;;;;;;;0.00;0.00;;;23.20;99.90;;;;;;5069843;28;20200;-77
2023/09/09 08:33:31;;;;;;;0.00;0.00;;;23.40;99.90;;;;;;5090942;28;20447;-77
2023/09/09 08:36:01;;;;;;;0.00;0.00;;;23.60;99.90;;;;;;5086245;28;21239;-77
2023/09/09 08:38:26;;;;;;;0.00;0.00;;;23.80;99.90;;;;;;5089402;28;20652;-78
2023/09/09 08:41:03;;;;;;;0.00;0.00;;;23.90;99.90;;;;;;5069720;28;20477;-78
2023/09/09 08:44:01;;;;;;;0.00;0.00;;;23.70;99.90;;;;;;5081170;28;20181;-77
2023/09/09 08:46:26;;;;;;;0.00;0.00;;;24.10;99.90;;;;;;5084097;28;20934;-78
2023/09/09 08:48:52;;;;;;;0.00;0.00;;;24.20;99.90;;;;;;5085881;28;20442;-80
2023/09/09 08:51:24;;;;;;;0.00;0.00;;;24.30;99.90;;;;;;5079073;28;20221;-77
2023/09/09 08:53:51;;;;;;;0.00;0.00;;;24.40;99.90;;;;;;5086152;28;20434;-77
2023/09/09 08:56:18;;;;;;;0.00;0.00;;;24.60;99.90;;;;;;5090437;28;20447;-78
2023/09/09 08:58:45;;;;;;;0.00;0.00;;;24.40;99.90;;;;;;5097175;28;20483;-78
2023/09/09 09:01:12;;;;;;;0.00;0.00;;;24.60;99.90;;;;;;5087338;28;20986;-77
2023/09/09 09:03:38;;;;;;;0.00;0.00;;;24.80;99.90;;;;;;5091586;28;20426;-77
2023/09/09 09:06:05;;;;;;;0.00;0.00;;;25.00;99.90;;;;;;5088118;28;20489;-78
2023/09/09 09:08:34;;;;;;;0.00;0.00;;;25.00;99.90;;;;;;5082100;28;20548;-78
2023/09/09 09:11:02;;;;;;;0.00;0.00;;;25.40;99.90;;;;;;5096861;28;20434;-76
2023/09/09 09:13:31;;;;;;;0.00;0.00;;;25.70;99.90;;;;;;5100413;28;21043;-76
2023/09/09 09:15:58;;;;;;;0.00;0.00;;;25.40;99.90;;;;;;5097483;28;20800;-78
2023/09/09 09:18:24;;;;;;;0.00;0.00;;;25.80;99.90;;;;;;5072552;28;20562;-77
2023/09/09 09:20:51;;;;;;;0.00;0.00;;;25.90;99.90;;;;;;5092959;28;20537;-78
2023/09/09 09:23:17;;;;;;;0.00;0.00;;;26.10;99.90;;;;;;5070677;28;20321;-75
2023/09/09 09:25:45;;;;;;;0.00;0.00;;;26.30;99.90;;;;;;5093382;28;20427;-76
2023/09/09 09:28:15;;;;;;;0.00;0.00;;;26.40;99.90;;;;;;5091288;28;20209;-76
2023/09/09 09:30:41;;;;;;;0.00;0.00;;;26.70;99.90;;;;;;5088468;28;20503;-75
2023/09/09 09:33:07;;;;;;;0.00;0.00;;;26.90;99.90;;;;;;5087975;28;20453;-76
2023/09/09 09:35:34;;;;;;;0.00;0.00;;;26.80;99.90;;;;;;5089855;28;20439;-75
2023/09/09 09:38:09;;;;;;;0.00;0.00;;;27.30;99.90;;;;;;5095267;28;20188;-76
2023/09/09 09:40:36;;;;;;;0.00;0.00;;;27.40;99.90;;;;;;5093992;28;20522;-76
2023/09/09 09:43:02;;;;;;;0.00;0.00;;;27.50;99.90;;;;;;5089516;28;20443;-76
2023/09/09 09:45:29;;;;;;;0.00;0.00;;;27.80;99.90;;;;;;5087410;28;20442;-76
2023/09/09 09:47:57;;;;;;;0.00;0.00;;;27.80;99.90;;;;;;5081534;28;20464;-76
2023/09/09 09:50:28;;;;;;;0.00;0.00;;;27.90;99.90;;;;;;5095301;28;20966;-76
2023/09/09 09:53:07;;;;;;;0.00;0.00;;;28.30;99.90;;;;;;5097878;28;20953;-76
2023/09/09 09:55:36;;;;;;;0.00;0.00;;;28.40;99.90;;;;;;5083858;28;20942;-76
2023/09/09 09:58:06;;;;;;;0.00;0.00;;;28.30;99.90;;;;;;5091648;28;20978;-76
2023/09/09 10:00:32;;;;;;;0.00;0.00;;;28.60;99.90;;;;;;5089308;28;20585;-76
2023/09/09 10:03:00;;;;;;;0.00;0.00;;;28.80;99.90;;;;;;5091608;28;20443;-76
2023/09/09 10:05:27;;;;;;;0.00;0.00;;;29.10;99.90;;;;;;5087495;28;20999;-76
2023/09/09 10:07:54;;;;;;;0.00;0.00;;;29.30;99.90;;;;;;5091905;28;20465;-78
2023/09/09 10:10:23;;;;;;;0.00;0.00;;;29.10;99.90;;;;;;5095313;28;20512;-78
2023/09/09 10:12:54;;;;;;;0.00;0.00;;;29.50;99.90;;;;;;5092533;28;20462;-78
2023/09/09 10:15:23;;;;;;;0.00;0.00;;;29.70;99.90;;;;;;5098314;28;20495;-79
2023/09/09 10:17:51;;;;;;;0.00;0.00;;;29.60;99.90;;;;;;5091632;28;20534;-79
2023/09/09 10:20:17;;;;;;;0.00;0.00;;;29.60;99.90;;;;;;5084151;28;20479;-79
2023/09/09 10:22:45;;;;;;;0.00;0.00;;;29.60;99.90;;;;;;5086904;28;20793;-78
2023/09/09 10:25:11;;;;;;;0.00;0.00;;;29.80;99.90;;;;;;5091634;28;20934;-79
2023/09/09 10:27:41;;;;;;;0.00;0.00;;;30.20;99.90;;;;;;5103751;28;20907;-78
2023/09/09 10:30:10;;;;;;;0.00;0.00;;;30.60;99.90;;;;;;5099091;28;20504;-79
2023/09/09 10:32:36;;;;;;;0.00;0.00;;;31.00;99.90;;;;;;5097069;28;20542;-79
2023/09/09 10:35:06;;;;;;;0.00;0.00;;;31.10;99.90;;;;;;5091116;28;20477;-77
2023/09/09 10:37:36;;;;;;;0.00;0.00;;;31.30;99.90;;;;;;5079820;28;20446;-76
2023/09/09 10:40:04;;;;;;;0.00;0.00;;;31.70;99.90;;;;;;5098087;28;20498;-77
2023/09/09 10:42:30;;;;;;;0.00;0.00;;;31.90;99.90;;;;;;5111356;28;20419;-76
2023/09/09 10:45:17;;;;;;;0.00;0.00;;;31.90;99.90;;;;;;5082630;28;20439;-76
2023/09/09 10:47:53;;;;;;;0.00;0.00;;;32.30;99.90;;;;;;5081538;28;20439;-76
2023/09/09 10:50:20;;;;;;;0.00;0.00;;;31.90;99.90;;;;;;5088704;28;20449;-74
2023/09/09 10:52:45;;;;;;;0.00;0.00;;;31.80;99.90;;;;;;5088036;28;20447;-76
2023/09/09 10:55:14;;;;;;;0.00;0.00;;;31.90;99.90;;;;;;5091559;28;20434;-76
2023/09/09 10:57:39;;;;;;;0.00;0.00;;;32.00;99.90;;;;;;5082055;28;20236;-76
2023/09/09 11:00:09;;;;;;;0.00;0.00;;;32.30;99.90;;;;;;5069631;28;20490;-76
2023/09/09 11:02:48;;;;;;;0.00;0.00;;;32.50;99.90;;;;;;5072325;28;20258;-76
2023/09/09 11:05:15;;;;;;;0.00;0.00;;;32.90;99.90;;;;;;5071665;28;20449;-77
2023/09/09 11:07:42;;;;;;;0.00;0.00;;;33.00;99.90;;;;;;5078233;28;20927;-76
2023/09/09 11:10:08;;;;;;;0.00;0.00;;;33.50;99.90;;;;;;5087191;28;20443;-77
2023/09/09 11:12:33;;;;;;;0.00;0.00;;;33.60;99.90;;;;;;5090407;28;20942;-76
2023/09/09 11:15:09;;;;;;;0.00;0.00;;;33.90;99.90;;;;;;5087859;28;20633;-78
2023/09/09 11:17:36;;;;;;;0.00;0.00;;;34.10;99.90;;;;;;5070276;28;20679;-77
2023/09/09 11:20:02;;;;;;;0.00;0.00;;;34.00;99.90;;;;;;5085995;28;20487;-76
2023/09/09 11:22:29;;;;;;;0.00;0.00;;;34.30;99.90;;;;;;5087721;28;20803;-77
2023/09/09 11:24:56;;;;;;;0.00;0.00;;;34.00;99.90;;;;;;5070592;28;20451;-76
2023/09/09 11:27:22;;;;;;;0.00;0.00;;;34.30;99.90;;;;;;5090685;28;20485;-77
2023/09/09 11:29:51;;;;;;;0.00;0.00;;;34.50;99.90;;;;;;5082793;28;20453;-76
2023/09/09 11:32:27;;;;;;;0.00;0.00;;;34.30;99.90;;;;;;5080777;28;20185;-76
2023/09/09 11:34:55;;;;;;;0.00;0.00;;;34.10;99.90;;;;;;5069794;28;20474;-76
2023/09/09 11:37:23;;;;;;;0.00;0.00;;;33.50;99.90;;;;;;5108601;28;20402;-76
2023/09/09 11:39:52;;;;;;;0.00;0.00;;;34.40;99.90;;;;;;5073531;28;20478;-78
2023/09/09 11:42:18;;;;;;;0.00;0.00;;;33.80;99.90;;;;;;5086786;28;20438;-77
2023/09/09 11:44:43;;;;;;;0.00;0.00;;;34.80;99.90;;;;;;5085913;28;20443;-77
2023/09/09 11:47:10;;;;;;;0.00;0.00;;;34.80;99.90;;;;;;5088644;28;20863;-77
2023/09/09 11:49:40;;;;;;;0.00;0.00;;;34.50;99.90;;;;;;5087711;28;20268;-76
2023/09/09 11:52:05;;;;;;;0.00;0.00;;;34.50;99.90;;;;;;5072269;28;20609;-78
2023/09/09 11:54:31;;;;;;;0.00;0.00;;;34.40;99.90;;;;;;5077169;28;20455;-76
2023/09/09 11:57:07;;;;;;;0.00;0.00;;;34.40;99.90;;;;;;5086544;28;20185;-76
2023/09/09 11:59:51;;;;;;;0.00;0.00;;;34.40;99.90;;;;;;5085391;28;20224;-77
2023/09/09 12:02:24;;;;;;;0.00;0.00;;;34.70;99.90;;;;;;5089377;28;20474;-77
2023/09/09 12:04:58;;;;;;;0.00;0.00;;;35.10;99.90;;;;;;5088886;28;20454;-77
2023/09/09 12:07:28;;;;;;;0.00;0.00;;;35.30;99.90;;;;;;5088757;28;20488;-76
2023/09/09 12:09:56;;;;;;;0.00;0.00;;;35.50;99.20;;;;;;5088024;28;20447;-77
2023/09/09 12:12:22;;;;;;;0.00;0.00;;;35.10;99.90;;;;;;5089650;28;20431;-77
2023/09/09 12:14:49;;;;;;;0.00;0.00;;;36.10;98.60;;;;;;5083851;28;21265;-78
2023/09/09 12:17:14;;;;;;;0.00;0.00;;;35.00;99.90;;;;;;5084995;28;20534;-78
2023/09/09 12:19:40;;;;;;;0.00;0.00;;;34.10;99.90;;;;;;5088084;28;20497;-78
2023/09/09 12:22:06;;;;;;;0.00;0.00;;;34.40;99.90;;;;;;5085773;28;20669;-77
2023/09/09 12:24:41;;;;;;;0.00;0.00;;;34.50;99.90;;;;;;5086177;28;20180;-78
2023/09/09 12:27:07;;;;;;;0.00;0.00;;;34.60;99.90;;;;;;5089531;28;20234;-77
2023/09/09 12:29:44;;;;;;;0.00;0.00;;;34.50;99.90;;;;;;5093334;28;20439;-77
2023/09/09 12:32:10;;;;;;;0.00;0.00;;;35.00;99.20;;;;;;5089320;28;20275;-77
2023/09/09 12:34:35;;;;;;;0.00;0.00;;;35.20;98.90;;;;;;5096432;28;20518;-78
2023/09/09 12:37:01;;;;;;;0.00;0.00;;;36.10;95.50;;;;;;5093270;28;20655;-77
2023/09/09 12:39:30;;;;;;;0.00;0.00;;;36.00;95.30;;;;;;5085164;28;20309;-77
2023/09/09 12:42:03;;;;;;;0.00;0.00;;;35.70;95.60;;;;;;5088793;28;20254;-76
2023/09/09 12:44:31;;;;;;;0.00;0.00;;;35.30;94.90;;;;;;5087474;28;20576;-77
2023/09/09 12:46:57;;;;;;;0.00;0.00;;;34.90;98.00;;;;;;5091709;28;20460;-77